Time;durP1;ratioP1;P1;durP2;ratioP2;P2;SDS_P1;SDS_P2;PMS_P1;PMS_P2;Temp;Humidity;BMP_temperature;BMP_pressure;BME280_temperature;BME280_humidity;BME280_pressure;Samples;Min_cycle;Max_cycle;Signal;HPM_P1;HPM_P2
2024/04/19 00:00:42;;;;;;;;;0.00;0.00;;;;;15.41;44.79;100381.34;146619;569;46020;-71
2024/04/19 00:03:39;;;;;;;;;0.00;0.00;;;;;15.44;44.98;100376.19;146618;650;46017;-71
2024/04/19 00:06:52;;;;;;;;;0.00;0.00;;;;;15.56;44.97;100384.34;146613;640;46020;-71
2024/04/19 00:10:26;;;;;;;;;0.00;0.00;;;;;15.06;43.07;100273.34;146609;691;47015;-72
2024/04/19 00:13:33;;;;;;;;;0.25;0.00;;;;;15.13;43.07;100254.37;146620;613;46020;-72
2024/04/19 00:16:31;;;;;;;;;0.00;0.00;;;;;15.95;43.99;100386.25;146618;627;47012;-71
2024/04/19 00:19:42;;;;;;;;;0.00;0.00;;;;;16.05;43.97;100379.50;146616;595;46021;-71
2024/04/19 00:22:51;;;;;;;;;0.00;0.00;;;;;16.16;43.45;100385.84;146614;681;46915;-72
2024/04/19 00:25:45;;;;;;;;;0.00;0.00;;;;;16.20;43.44;100384.16;146621;584;46020;-72
2024/04/19 00:28:46;;;;;;;;;0.50;0.00;;;;;16.16;43.57;100391.94;146616;629;48012;-72
2024/04/19 00:31:48;;;;;;;;;0.75;0.00;;;;;16.00;43.82;100389.81;146617;628;46011;-76
2024/04/19 00:34:55;;;;;;;;;0.75;0.00;;;;;15.79;43.75;100389.31;146615;565;47012;-71
2024/04/19 00:37:59;;;;;;;;;0.00;0.00;;;;;15.60;44.80;100386.19;146613;569;46021;-75
2024/04/19 00:40:54;;;;;;;;;0.00;0.00;;;;;15.41;44.84;100383.97;146617;564;45584;-76
2024/04/19 00:43:55;;;;;;;;;1.50;0.00;;;;;15.27;45.07;100396.66;146620;607;47010;-75
2024/04/19 00:47:28;;;;;;;;;0.00;0.00;;;;;15.13;45.25;100391.06;146617;585;46013;-73
2024/04/19 00:50:23;;;;;;;;;0.25;0.25;;;;;15.00;45.72;100396.78;146620;592;46020;-73
2024/04/19 00:53:38;;;;;;;;;0.00;0.00;;;;;14.50;44.94;100312.69;146614;580;46016;-73
2024/04/19 00:56:36;;;;;;;;;0.00;0.00;;;;;14.93;46.78;100393.13;146622;665;46020;-74
2024/04/19 00:59:32;;;;;;;;;0.00;0.00;;;;;14.90;46.23;100381.72;146634;660;45915;-74
2024/04/19 01:02:43;;;;;;;;;1.50;0.50;;;;;14.82;45.13;100384.09;146633;629;46010;-78
2024/04/19 01:05:40;;;;;;;;;0.75;0.75;;;;;14.70;46.93;100373.28;146634;683;45914;-75
2024/04/19 01:08:39;;;;;;;;;0.00;0.00;;;;;14.59;46.65;100373.00;146634;687;45021;-76
2024/04/19 01:11:38;;;;;;;;;0.00;0.00;;;;;14.50;46.60;100370.06;146630;579;46012;-73
2024/04/19 01:14:42;;;;;;;;;0.25;0.25;;;;;14.46;46.26;100374.31;146635;594;46010;-73
2024/04/19 01:18:00;;;;;;;;;0.00;0.00;;;;;14.47;46.47;100376.09;146635;575;46013;-71
2024/04/19 01:20:53;;;;;;;;;0.25;0.25;;;;;14.54;46.73;100380.66;146634;639;46012;-71
2024/04/19 01:23:51;;;;;;;;;0.00;0.00;;;;;14.63;46.35;100385.28;146629;632;46012;-71
2024/04/19 01:26:46;;;;;;;;;0.00;0.00;;;;;14.77;46.76;100386.59;146638;592;45010;-71
2024/04/19 01:30:02;;;;;;;;;0.00;0.00;;;;;14.86;45.70;100387.66;146635;592;45032;-71
2024/04/19 01:33:06;;;;;;;;;0.00;0.00;;;;;14.30;44.98;100281.69;146637;637;45010;-71
2024/04/19 01:35:59;;;;;;;;;1.00;0.00;;;;;14.93;46.10;100393.13;146631;660;45912;-72
2024/04/19 01:39:14;;;;;;;;;1.75;0.00;;;;;14.11;44.94;100261.13;146637;672;45011;-71
2024/04/19 01:42:19;;;;;;;;;0.00;0.00;;;;;14.77;45.86;100380.47;146633;585;45016;-71
2024/04/19 01:45:12;;;;;;;;;1.25;0.00;;;;;14.71;46.51;100390.75;146635;612;46021;-71
2024/04/19 01:48:08;;;;;;;;;1.25;0.00;;;;;14.62;46.33;100393.97;146633;583;45032;-72
2024/04/19 01:51:05;;;;;;;;;0.00;0.00;;;;;14.54;46.07;100385.87;146632;647;46010;-73
2024/04/19 01:54:15;;;;;;;;;0.25;0.00;;;;;14.45;47.09;100393.41;146634;600;46012;-72
2024/04/19 01:57:46;;;;;;;;;0.00;0.00;;;;;13.60;45.99;100266.53;146631;725;46020;-72
2024/04/19 02:01:01;;;;;;;;;0.00;0.00;;;;;14.27;45.65;100392.87;146614;647;47012;-71
2024/04/19 02:04:06;;;;;;;;;0.00;0.00;;;;;14.29;47.88;100407.69;146619;652;46020;-72
2024/04/19 02:06:54;;;;;;;;;0.00;0.00;;;;;14.29;49.49;100399.00;146715;574;45022;-73
2024/04/19 02:10:01;;;;;;;;;0.00;0.00;;;;;14.30;47.07;100404.28;146620;590;46012;-77
2024/04/19 02:13:01;;;;;;;;;1.00;0.00;;;;;14.28;47.94;100412.88;146616;581;46021;-72
2024/04/19 02:16:04;;;;;;;;;0.00;0.00;;;;;14.21;48.10;100409.22;146613;563;46016;-71
2024/04/19 02:19:22;;;;;;;;;1.00;0.00;;;;;14.14;48.14;100407.22;146616;592;46020;-71
2024/04/19 02:22:31;;;;;;;;;0.00;0.00;;;;;13.56;47.58;100333.28;146613;655;46012;-72
2024/04/19 02:25:33;;;;;;;;;2.00;0.00;;;;;13.98;48.80;100412.78;146614;566;47020;-72
2024/04/19 02:31:55;;;;;;;;;0.00;0.00;;;;;13.95;48.87;100410.09;146616;564;47008;-71
2024/04/19 02:35:03;;;;;;;;;0.00;0.00;;;;;13.55;48.47;100341.03;146608;687;46016;-71
2024/04/19 02:38:00;;;;;;;;;1.00;1.00;;;;;13.89;48.92;100405.53;146618;563;46010;-72
2024/04/19 02:40:56;;;;;;;;;1.25;1.00;;;;;13.85;50.01;100393.25;146612;608;46024;-72
2024/04/19 02:43:53;;;;;;;;;0.50;0.00;;;;;13.77;49.34;100398.25;146617;577;46020;-72
2024/04/19 02:46:51;;;;;;;;;0.00;0.00;;;;;13.75;49.45;100393.81;146612;633;46036;-69
2024/04/19 02:49:53;;;;;;;;;0.00;0.00;;;;;13.81;48.82;100400.09;146616;570;47012;-68
2024/04/19 02:53:16;;;;;;;;;0.00;0.00;;;;;13.81;46.89;100374.03;146613;585;46016;-68
2024/04/19 02:56:15;;;;;;;;;0.25;0.00;;;;;14.09;48.34;100404.47;146616;689;47021;-70
2024/04/19 02:59:10;;;;;;;;;0.75;0.00;;;;;14.29;48.38;100402.50;146610;575;47914;-72
2024/04/19 03:02:26;;;;;;;;;;;;;;;;;;;;;
2024/04/19 03:05:24;;;;;;;;;0.00;0.00;;;;;14.62;47.09;100407.00;146611;586;46016;-76
2024/04/19 03:08:19;;;;;;;;;0.00;0.00;;;;;14.76;46.77;100400.44;146617;644;46020;-77
2024/04/19 03:11:11;;;;;;;;;1.25;0.00;;;;;14.88;47.47;100404.25;146610;577;47012;-69
2024/04/19 03:14:04;;;;;;;;;1.00;0.00;;;;;14.95;47.52;100407.13;146614;630;46912;-72
2024/04/19 03:17:04;;;;;;;;;1.25;0.75;;;;;15.06;46.75;100415.22;146611;594;46016;-74
2024/04/19 03:20:10;;;;;;;;;0.00;0.00;;;;;15.14;46.06;100420.66;146616;680;47011;-70
2024/04/19 03:23:08;;;;;;;;;0.25;0.25;;;;;15.18;47.09;100426.03;146612;683;46016;-68
2024/04/19 03:26:09;;;;;;;;;4.50;1.25;;;;;15.21;47.45;100420.00;146618;586;45021;-71
2024/04/19 03:29:13;;;;;;;;;0.00;0.00;;;;;15.18;48.88;100426.03;146613;583;46034;-71
2024/04/19 03:32:29;;;;;;;;;0.25;0.25;;;;;14.75;48.52;100364.75;146614;694;46020;-70
2024/04/19 03:35:32;;;;;;;;;1.00;0.00;;;;;15.08;49.47;100431.84;146610;564;46017;-71
2024/04/19 03:38:32;;;;;;;;;0.00;0.00;;;;;15.04;50.65;100431.69;146614;563;47020;-71
2024/04/19 03:41:33;;;;;;;;;3.00;2.00;;;;;15.00;54.12;100441.16;146611;579;46017;-70
2024/04/19 03:47:48;;;;;;;;;3.25;2.00;;;;;14.80;52.90;100430.16;146611;595;46012;-71
2024/04/19 03:50:48;;;;;;;;;1.00;1.00;;;;;14.72;55.31;100429.03;146615;700;47010;-71
2024/04/19 03:53:53;;;;;;;;;1.25;0.25;;;;;14.69;52.90;100434.16;146612;635;46016;-73
2024/04/19 03:56:57;;;;;;;;;2.00;1.00;;;;;14.67;55.04;100435.84;146616;659;46021;-71
2024/04/19 03:59:49;;;;;;;;;2.25;2.25;;;;;14.62;56.14;100425.28;146612;636;46914;-72
2024/04/19 04:02:46;;;;;;;;;2.00;1.00;;;;;14.56;57.12;100435.53;146615;590;47010;-70
2024/04/19 04:05:44;;;;;;;;;2.75;1.00;;;;;14.42;55.78;100434.16;146612;592;46016;-72
2024/04/19 04:08:37;;;;;;;;;4.00;2.00;;;;;14.30;55.98;100432.09;146615;569;47020;-70
2024/04/19 04:11:40;;;;;;;;;;;;;;;;;;;;;
2024/04/19 04:14:38;;;;;;;;;1.75;1.75;;;;;14.19;55.12;100446.50;146616;710;47020;-71
2024/04/19 04:17:30;;;;;;;;;2.50;1.75;;;;;14.16;55.11;100455.09;146610;691;46017;-71
2024/04/19 04:20:39;;;;;;;;;1.00;1.00;;;;;14.08;54.32;100459.16;146617;636;46010;-76
2024/04/19 04:23:40;;;;;;;;;1.00;1.00;;;;;14.01;54.83;100463.28;146613;569;46034;-71
2024/04/19 04:26:31;;;;;;;;;3.00;1.50;;;;;14.06;53.39;100461.75;146611;619;47012;-70
2024/04/19 04:29:28;;;;;;;;;1.00;0.00;;;;;14.19;52.97;100464.75;146611;604;46016;-71
2024/04/19 04:32:24;;;;;;;;;1.75;1.75;;;;;14.32;53.76;100470.41;146616;564;47020;-73
2024/04/19 04:35:26;;;;;;;;;0.00;0.00;;;;;14.47;52.62;100469.12;146611;672;47012;-73
2024/04/19 04:38:31;;;;;;;;;0.25;0.25;;;;;14.74;52.66;100472.62;146618;586;46020;-72
2024/04/19 04:41:39;;;;;;;;;0.50;0.50;;;;;15.02;51.14;100465.59;146611;564;46017;-72
2024/04/19 04:44:38;;;;;;;;;1.75;0.25;;;;;15.30;51.94;100467.28;146616;713;46020;-71
2024/04/19 04:47:33;;;;;;;;;2.25;0.25;;;;;15.54;50.75;100467.03;146610;622;46021;-71
2024/04/19 04:50:35;;;;;;;;;3.50;1.00;;;;;15.86;50.01;100474.91;146617;577;46031;-71
2024/04/19 04:53:39;;;;;;;;;1.00;1.00;;;;;15.84;48.19;100406.87;146611;563;46014;-72
2024/04/19 04:56:32;;;;;;;;;1.75;1.75;;;;;16.57;48.30;100472.25;146617;654;46021;-71
2024/04/19 04:59:31;;;;;;;;;1.00;1.00;;;;;16.92;47.54;100472.22;146610;599;46016;-71
2024/04/19 05:02:26;;;;;;;;;1.00;1.00;;;;;17.20;46.93;100484.16;146615;584;47011;-71
2024/04/19 05:05:24;;;;;;;;;2.00;1.00;;;;;17.39;46.01;100474.91;146611;695;46012;-73
2024/04/19 05:08:32;;;;;;;;;0.75;0.75;;;;;17.14;45.75;100411.53;146617;640;47010;-72
2024/04/19 05:11:33;;;;;;;;;2.00;1.00;;;;;17.72;46.15;100487.75;146609;565;47012;-72
2024/04/19 05:14:44;;;;;;;;;2.00;1.00;;;;;17.97;44.51;100476.91;146616;589;46030;-72
2024/04/19 05:17:39;;;;;;;;;1.75;0.25;;;;;18.21;44.39;100483.41;146609;652;46016;-74
2024/04/19 05:20:45;;;;;;;;;2.50;0.00;;;;;18.43;44.09;100476.75;146616;576;47010;-70
2024/04/19 05:23:47;;;;;;;;;1.25;0.75;;;;;18.58;43.87;100483.97;146607;639;47010;-70
2024/04/19 05:26:57;;;;;;;;;2.00;2.00;;;;;18.68;44.02;100486.75;146616;716;47010;-75
2024/04/19 05:29:49;;;;;;;;;4.00;2.00;;;;;18.72;44.87;100489.41;146611;675;46016;-78
2024/04/19 05:32:50;;;;;;;;;2.00;0.00;;;;;18.83;45.05;100494.00;146615;573;46020;-73
2024/04/19 05:36:01;;;;;;;;;2.00;0.67;;;;;18.84;44.27;100477.37;146613;573;46012;-71
2024/04/19 05:38:56;;;;;;;;;0.00;0.00;;;;;19.08;45.62;100502.22;146614;580;47013;-72
2024/04/19 05:41:51;;;;;;;;;1.50;1.00;;;;;19.12;45.10;100497.00;146610;623;46012;-75
2024/04/19 05:44:51;;;;;;;;;0.33;0.00;;;;;19.17;45.30;100497.09;146617;654;47020;-74
2024/04/19 05:47:54;;;;;;;;;3.00;2.00;;;;;19.21;45.08;100496.25;146612;602;46917;-76
2024/04/19 05:50:57;;;;;;;;;1.75;1.00;;;;;19.31;44.12;100494.59;146616;563;46010;-72
2024/04/19 05:53:58;;;;;;;;;1.00;0.00;;;;;19.41;44.20;100500.84;146613;582;46017;-73
2024/04/19 05:57:00;;;;;;;;;1.00;1.00;;;;;19.47;43.37;100485.16;146612;608;46021;-72
2024/04/19 05:59:56;;;;;;;;;1.25;1.25;;;;;19.54;44.23;100485.25;146613;677;46012;-72
2024/04/19 06:02:48;;;;;;;;;1.00;1.00;;;;;19.66;44.07;100487.16;146616;608;46010;-73
2024/04/19 06:05:51;;;;;;;;;0.00;0.00;;;;;19.76;44.30;100490.78;146611;586;46016;-74
2024/04/19 06:08:52;;;;;;;;;0.25;0.00;;;;;19.73;44.22;100481.09;146614;572;47010;-73
2024/04/19 06:12:03;;;;;;;;;;;;;;;;;;;;;
2024/04/19 06:14:55;;;;;;;;;2.50;1.00;;;;;19.78;44.10;100479.41;146617;580;46020;-73
2024/04/19 06:17:52;;;;;;;;;2.00;2.00;;;;;19.93;43.73;100481.28;146611;723;46017;-75
2024/04/19 06:20:51;;;;;;;;;4.00;0.00;;;;;19.93;43.15;100476.00;146619;631;46020;-73
2024/04/19 06:23:43;;;;;;;;;1.00;1.00;;;;;19.77;43.65;100467.09;146610;702;46017;-70
2024/04/19 06:26:41;;;;;;;;;2.25;1.00;;;;;19.72;43.78;100470.53;146617;579;46020;-70
2024/04/19 06:29:39;;;;;;;;;4.75;4.75;;;;;19.79;44.20;100470.63;146610;722;47016;-76
2024/04/19 06:32:40;;;;;;;;;2.00;1.75;;;;;19.92;43.16;100471.63;146616;686;47010;-77
2024/04/19 06:35:37;;;;;;;;;1.00;1.00;;;;;20.03;43.46;100474.34;146609;613;47016;-75
2024/04/19 06:38:41;;;;;;;;;1.33;1.00;;;;;20.16;43.48;100476.22;146616;622;46021;-74
2024/04/19 06:41:42;;;;;;;;;0.00;0.00;;;;;20.37;43.03;100477.25;146614;571;46916;-72
2024/04/19 06:44:43;;;;;;;;;1.00;0.33;;;;;20.49;42.77;100477.34;146617;628;46030;-74
2024/04/19 06:47:57;;;;;;;;;0.00;0.00;;;;;20.59;42.28;100483.56;146612;571;46913;-75
2024/04/19 06:50:53;;;;;;;;;1.00;0.00;;;;;20.68;41.98;100475.72;146616;581;46020;-75
2024/04/19 06:54:01;;;;;;;;;0.00;0.00;;;;;20.72;40.83;100475.78;146613;608;46016;-75
2024/04/19 06:57:01;;;;;;;;;0.00;0.00;;;;;20.74;41.28;100474.00;146617;567;46020;-73
2024/04/19 07:00:02;;;;;;;;;0.33;0.33;;;;;20.80;41.25;100474.94;146611;593;46012;-72
2024/04/19 07:03:12;;;;;;;;;0.00;0.00;;;;;20.82;41.66;100473.19;146614;575;47036;-74
2024/04/19 07:06:21;;;;;;;;;1.00;0.00;;;;;20.81;41.94;100471.41;146612;566;46016;-75
2024/04/19 07:09:18;;;;;;;;;2.00;1.00;;;;;20.80;42.47;100467.91;146618;569;46010;-74
2024/04/19 07:12:11;;;;;;;;;0.00;0.00;;;;;20.86;42.24;100472.34;146609;576;47016;-73
2024/04/19 07:15:17;;;;;;;;;0.00;0.00;;;;;20.93;42.63;100479.38;146613;625;46011;-74
2024/04/19 07:18:22;;;;;;;;;1.00;1.00;;;;;21.00;41.72;100475.94;146611;614;46016;-78
2024/04/19 07:21:20;;;;;;;;;0.67;0.00;;;;;21.06;41.54;100481.22;146604;574;47010;-74
2024/04/19 07:24:16;;;;;;;;;0.00;0.00;;;;;21.10;41.98;100474.22;146612;574;46917;-75
2024/04/19 07:27:30;;;;;;;;;;;;;;;;;;;;;
2024/04/19 07:30:30;;;;;;;;;2.00;1.00;;;;;21.25;42.01;100481.31;146613;575;46012;-72
2024/04/19 07:33:26;;;;;;;;;0.00;0.00;;;;;21.16;42.21;100477.75;146616;571;46020;-67
2024/04/19 07:36:31;;;;;;;;;0.00;0.00;;;;;21.12;41.08;100470.72;146611;679;47016;-70
2024/04/19 09:21:39;;;;;;;;;0.00;0.00;;;;;22.75;38.38;100404.81;146638;591;46022;-72
2024/04/19 09:24:35;;;;;;;;;0.67;0.67;;;;;22.74;38.17;100406.59;146624;620;47010;-74
2024/04/19 09:27:39;;;;;;;;;0.00;0.00;;;;;22.72;38.81;100397.78;146627;633;46020;-73
2024/04/19 09:30:44;;;;;;;;;0.00;0.00;;;;;22.69;38.89;100394.28;146621;683;47010;-74
2024/04/19 09:34:03;;;;;;;;;0.33;0.00;;;;;22.73;38.58;100393.37;146626;590;46021;-71
2024/04/19 09:37:10;;;;;;;;;0.67;0.00;;;;;22.80;37.82;100387.16;146625;644;46016;-72
2024/04/19 09:40:15;;;;;;;;;;;;;;;;;;;;;
2024/04/19 09:43:37;;;;;;;;;0.00;0.00;;;;;22.96;39.05;100380.06;146624;591;47906;-73
2024/04/19 09:46:39;;;;;;;;;0.00;0.00;;;;;23.04;38.80;100365.91;146629;587;47008;-72
2024/04/19 09:50:15;;;;;;;;;;;;;;;;;;;;;
2024/04/19 09:53:24;;;;;;;;;1.00;1.00;;;;;23.06;38.59;100344.78;146627;615;46008;-71
2024/04/19 09:56:55;;;;;;;;;2.00;2.00;;;;;23.12;38.48;100331.53;146619;622;48907;-70
2024/04/19 09:59:57;;;;;;;;;0.00;0.00;;;;;23.20;37.43;100328.81;146626;580;47008;-72
2024/04/19 10:03:17;;;;;;;;;1.33;0.00;;;;;23.22;37.46;100333.19;146622;617;47010;-71
2024/04/19 10:06:23;;;;;;;;;0.00;0.00;;;;;23.24;38.74;100326.16;146630;640;46020;-72
2024/04/19 10:09:37;;;;;;;;;1.00;1.00;;;;;23.26;38.58;100319.06;146624;603;46010;-72
2024/04/19 10:12:35;;;;;;;;;2.67;1.67;;;;;23.21;38.22;100317.38;146631;574;46008;-75
2024/04/19 10:15:50;;;;;;;;;;;;;;;;;;;;;
2024/04/19 10:19:03;;;;;;;;;;;;;;;;;;;;;
2024/04/19 10:22:16;;;;;;;;;1.00;0.67;;;;;23.05;38.17;100305.97;146637;636;46918;-72
2024/04/19 10:25:12;;;;;;;;;0.67;0.67;;;;;23.01;37.84;100301.59;146643;615;45035;-75
2024/04/19 10:28:17;;;;;;;;;0.00;0.00;;;;;22.99;38.20;100296.34;146639;638;45034;-70
2024/04/19 10:31:13;;;;;;;;;0.67;0.67;;;;;23.04;38.57;100293.66;146646;604;45010;-71
2024/04/19 10:34:33;;;;;;;;;1.00;1.00;;;;;23.09;38.85;100286.59;146638;572;45914;-73
2024/04/19 10:37:49;;;;;;;;;2.67;1.00;;;;;23.10;39.07;100293.63;146643;686;45010;-72
2024/04/19 10:40:46;;;;;;;;;1.00;0.00;;;;;23.05;39.03;100279.53;146639;589;47912;-72
2024/04/19 10:43:55;;;;;;;;;1.00;1.00;;;;;23.02;38.09;100284.84;146641;648;45018;-72
2024/04/19 10:47:01;;;;;;;;;1.33;1.00;;;;;22.99;38.36;100280.47;146638;576;45018;-72
2024/04/19 10:50:11;;;;;;;;;0.00;0.00;;;;;23.00;37.74;100276.94;146644;657;45018;-70
2024/04/19 10:53:13;;;;;;;;;0.33;0.00;;;;;23.06;38.12;100276.03;146638;571;45914;-72
2024/04/19 10:56:25;;;;;;;;;;;;;;;;;;;;;
2024/04/19 10:59:31;;;;;;;;;1.50;1.00;;;;;22.91;36.90;100263.75;146636;571;46012;-75
2024/04/19 11:02:43;;;;;;;;;1.00;0.00;;;;;22.81;38.07;100243.56;146641;664;45018;-70
2024/04/19 11:05:39;;;;;;;;;0.00;0.00;;;;;22.71;38.27;100233.91;146637;619;46012;-70
2024/04/19 11:08:42;;;;;;;;;0.00;0.00;;;;;22.76;38.18;100230.34;146642;569;45019;-71
2024/04/19 11:11:48;;;;;;;;;0.00;0.00;;;;;22.81;37.81;100215.34;146639;579;45012;-74
2024/04/19 11:14:49;;;;;;;;;0.00;0.00;;;;;22.81;37.06;100190.69;146640;578;46010;-69
2024/04/19 11:17:50;;;;;;;;;1.67;0.00;;;;;22.81;36.34;100178.34;146637;641;45018;-71
2024/04/19 11:20:49;;;;;;;;;0.00;0.00;;;;;22.92;37.03;100169.44;146630;576;47010;-73
2024/04/19 11:23:48;;;;;;;;;0.00;0.00;;;;;23.03;37.34;100159.69;146619;694;46014;-68
2024/04/19 11:27:00;;;;;;;;;0.00;0.00;;;;;23.01;36.71;100172.91;146621;577;47010;-71
2024/04/19 11:30:02;;;;;;;;;0.00;0.00;;;;;22.95;36.54;100185.31;146615;599;47012;-70
2024/04/19 11:33:05;;;;;;;;;0.33;0.33;;;;;22.93;36.57;100180.03;146620;603;46018;-72
2024/04/19 11:35:59;;;;;;;;;1.33;0.00;;;;;22.82;36.16;100189.78;146615;587;46018;-73
2024/04/19 11:38:54;;;;;;;;;0.00;0.00;;;;;22.57;35.74;100174.09;146622;655;46019;-73
2024/04/19 11:41:53;;;;;;;;;1.00;0.00;;;;;22.33;36.70;100168.97;146615;571;47012;-72
2024/04/19 11:44:57;;;;;;;;;0.00;0.00;;;;;22.09;36.54;100162.03;146620;643;46019;-73
2024/04/19 11:47:52;;;;;;;;;1.00;0.00;;;;;21.90;36.77;100161.25;146615;628;48912;-73
2024/04/19 11:50:50;;;;;;;;;0.33;0.00;;;;;21.79;37.67;100147.19;146620;571;47018;-71
2024/04/19 11:53:47;;;;;;;;;0.00;0.00;;;;;21.66;37.58;100154.28;146619;622;46019;-72
2024/04/19 11:56:59;;;;;;;;;0.00;0.00;;;;;21.71;37.42;100152.47;146620;565;46012;-73
2024/04/19 12:00:14;;;;;;;;;1.00;1.00;;;;;21.75;36.77;100146.31;146615;592;47012;-73
2024/04/19 12:03:18;;;;;;;;;0.00;0.00;;;;;21.72;37.40;100127.88;146621;588;46018;-71
2024/04/19 12:06:29;;;;;;;;;0.00;0.00;;;;;21.67;36.99;100135.78;146615;580;47018;-75
2024/04/19 12:09:24;;;;;;;;;0.00;0.00;;;;;21.60;37.31;100110.31;146619;597;46018;-72
2024/04/19 12:12:34;;;;;;;;;0.33;0.00;;;;;21.55;37.78;100127.03;146615;597;46911;-73
2024/04/19 12:15:35;;;;;;;;;0.00;0.00;;;;;21.55;37.60;100124.41;146619;587;46027;-75
2024/04/19 12:18:39;;;;;;;;;1.00;1.00;;;;;21.53;37.73;100124.41;146618;580;46014;-72
2024/04/19 12:21:34;;;;;;;;;0.00;0.00;;;;;21.45;35.94;100115.63;146620;586;46019;-75
2024/04/19 12:24:29;;;;;;;;;1.00;1.00;;;;;21.31;36.62;100104.19;146616;685;46018;-74
2024/04/19 12:27:34;;;;;;;;;0.00;0.00;;;;;21.17;36.63;100091.06;146618;569;46018;-74
2024/04/19 12:30:44;;;;;;;;;0.33;0.33;;;;;21.08;36.93;100080.53;146616;645;46019;-74
2024/04/19 12:33:45;;;;;;;;;1.00;0.00;;;;;21.06;37.31;100082.28;146620;647;46018;-76
2024/04/19 12:36:46;;;;;;;;;1.00;0.00;;;;;21.08;37.01;100078.78;146616;620;46019;-74
2024/04/19 12:39:41;;;;;;;;;0.00;0.00;;;;;20.95;35.90;100066.50;146620;584;46018;-74
2024/04/19 12:42:39;;;;;;;;;0.00;0.00;;;;;20.65;35.72;100075.28;146610;612;47018;-72
2024/04/19 12:45:35;;;;;;;;;1.00;0.00;;;;;20.47;36.69;100049.81;146617;570;47019;-74
2024/04/19 12:48:38;;;;;;;;;0.00;0.00;;;;;20.41;36.25;100036.66;146616;598;46012;-72
2024/04/19 12:51:45;;;;;;;;;0.00;0.00;;;;;20.34;36.06;100056.81;146617;657;47010;-74
2024/04/19 12:54:53;;;;;;;;;0.67;0.67;;;;;20.17;36.07;100048.91;146618;591;46018;-73
2024/04/19 12:57:50;;;;;;;;;2.00;0.00;;;;;20.03;36.26;100050.63;146622;566;47010;-72
2024/04/19 13:01:02;;;;;;;;;1.75;1.75;;;;;19.96;35.05;100026.06;146617;671;46911;-71
2024/04/19 13:04:05;;;;;;;;;1.00;0.00;;;;;19.96;35.16;100014.66;146619;594;46031;-74
2024/04/19 13:07:08;;;;;;;;;0.00;0.00;;;;;19.94;35.53;100016.44;146613;578;46019;-71
2024/04/19 13:10:11;;;;;;;;;2.00;0.75;;;;;19.96;36.07;100004.13;146621;646;47010;-71
2024/04/19 13:13:15;;;;;;;;;0.00;0.00;;;;;19.88;36.24;100003.28;146617;572;47015;-72
2024/04/19 13:16:32;;;;;;;;;0.00;0.00;;;;;19.87;36.56;99986.56;146624;606;46010;-70
2024/04/19 13:19:27;;;;;;;;;0.00;0.00;;;;;19.94;36.78;99975.22;146615;653;46018;-72
2024/04/19 13:22:22;;;;;;;;;2.00;1.33;;;;;19.99;40.85;99980.47;146621;569;47010;-71
2024/04/19 13:25:16;;;;;;;;;3.00;1.00;;;;;20.00;43.50;99980.47;146616;596;47012;-70
2024/04/19 13:28:23;;;;;;;;;1.50;1.00;;;;;19.96;42.89;99976.06;146621;630;46019;-70
2024/04/19 13:31:19;;;;;;;;;4.25;4.25;;;;;19.82;43.25;99970.81;146614;570;47014;-71
2024/04/19 13:34:27;;;;;;;;;3.00;2.00;;;;;19.73;42.81;99964.66;146623;574;47010;-71
2024/04/19 13:37:26;;;;;;;;;0.33;0.33;;;;;19.67;42.50;99962.87;146616;629;46014;-70
2024/04/19 13:40:21;;;;;;;;;1.33;0.00;;;;;19.57;41.73;99953.19;146621;610;46018;-71
2024/04/19 13:43:16;;;;;;;;;0.67;0.67;;;;;19.57;41.14;99950.56;146615;643;46019;-71
2024/04/19 13:46:11;;;;;;;;;1.00;1.00;;;;;19.60;41.69;99951.44;146621;657;46018;-68
2024/04/19 13:49:11;;;;;;;;;1.67;1.00;;;;;19.69;40.97;99949.72;146619;700;46012;-72
2024/04/19 13:52:12;;;;;;;;;2.33;1.00;;;;;19.74;39.88;99938.34;146615;577;47018;-72
2024/04/19 13:55:13;;;;;;;;;1.00;0.00;;;;;19.76;38.76;99941.84;146616;669;46912;-73
2024/04/19 13:58:22;;;;;;;;;0.00;0.00;;;;;19.84;38.66;99936.59;146619;624;47010;-71
2024/04/19 14:01:22;;;;;;;;;1.75;0.75;;;;;19.95;39.32;99923.47;146615;686;46018;-71
2024/04/19 14:04:20;;;;;;;;;0.00;0.00;;;;;20.03;38.48;99914.69;146619;642;47010;-70
2024/04/19 14:07:23;;;;;;;;;1.75;1.00;;;;;20.04;38.72;99907.66;146615;570;46912;-75
2024/04/19 14:10:28;;;;;;;;;0.00;0.00;;;;;20.04;39.14;99899.78;146620;643;47010;-69
2024/04/19 14:13:40;;;;;;;;;2.25;1.00;;;;;19.66;39.40;99834.00;146617;575;47013;-70
2024/04/19 14:16:43;;;;;;;;;0.33;0.33;;;;;20.03;39.22;99892.72;146619;569;46018;-68
2024/04/19 14:19:40;;;;;;;;;2.67;1.00;;;;;20.02;39.36;99891.88;146618;569;46917;-69
2024/04/19 14:22:37;;;;;;;;;0.00;0.00;;;;;20.01;39.25;99884.84;146622;640;46018;-69
2024/04/19 14:25:39;;;;;;;;;0.67;0.00;;;;;19.90;38.80;99878.72;146614;582;46018;-73
2024/04/19 14:28:42;;;;;;;;;1.00;0.67;;;;;19.72;39.91;99865.56;146619;566;47012;-72
2024/04/19 14:31:45;;;;;;;;;0.67;0.67;;;;;19.60;39.59;99866.41;146616;581;47012;-72
2024/04/19 14:34:54;;;;;;;;;0.67;0.67;;;;;19.60;39.83;99869.91;146620;602;47011;-72
2024/04/19 14:38:01;;;;;;;;;1.33;0.33;;;;;19.56;39.98;99870.81;146617;591;46913;-73
2024/04/19 14:40:59;;;;;;;;;2.00;2.00;;;;;19.57;39.46;99867.28;146614;682;47010;-73
2024/04/19 14:43:59;;;;;;;;;1.00;1.00;;;;;19.60;39.71;99856.75;146617;577;46027;-71
2024/04/19 14:46:59;;;;;;;;;0.00;0.00;;;;;19.67;39.86;99847.16;146621;604;47010;-73
2024/04/19 14:49:54;;;;;;;;;0.00;0.00;;;;;19.74;40.08;99858.56;146615;616;46018;-73
2024/04/19 14:53:03;;;;;;;;;;;;;;;;;;;;;
2024/04/19 14:56:18;;;;;;;;;;;;;;;;;;;;;
2024/04/19 14:59:14;;;;;;;;;2.00;2.00;;;;;19.85;40.23;99843.66;146623;573;46018;-73
2024/04/19 15:02:10;;;;;;;;;4.50;4.50;;;;;19.90;41.04;99843.63;146614;563;46014;-74
2024/04/19 15:05:05;;;;;;;;;3.50;3.00;;;;;19.90;40.70;99836.62;146618;659;46019;-72
2024/04/19 15:08:10;;;;;;;;;2.67;2.67;;;;;19.89;41.93;99834.00;146616;629;46018;-72
2024/04/19 15:11:08;;;;;;;;;3.00;2.75;;;;;19.85;42.20;99841.03;146614;569;47010;-71
2024/04/19 15:14:10;;;;;;;;;4.00;3.00;;;;;19.83;43.14;99848.03;146615;584;46018;-72
2024/04/19 15:17:06;;;;;;;;;4.00;4.00;;;;;19.78;45.33;99842.78;146620;684;47010;-73
2024/04/19 15:20:20;;;;;;;;;1.50;1.25;;;;;19.72;44.42;99840.16;146615;570;46013;-71
2024/04/19 15:23:23;;;;;;;;;2.75;2.75;;;;;19.58;46.43;99845.34;146620;639;46018;-71
2024/04/19 15:26:30;;;;;;;;;4.00;4.00;;;;;19.42;49.96;99851.47;146615;575;47012;-73
2024/04/19 15:29:37;;;;;;;;;;;;;;;;;;;;;
2024/04/19 15:32:45;;;;;;;;;;;;;;;;;;;;;
2024/04/19 15:35:56;;;;;;;;;5.67;4.00;;;;;18.80;49.28;99874.09;146618;588;47030;-73
2024/04/19 15:38:55;;;;;;;;;4.33;4.33;;;;;18.65;57.66;99880.09;146618;611;46915;-72
2024/04/19 15:41:52;;;;;;;;;5.00;5.00;;;;;18.54;58.29;99894.94;146610;663;47019;-73
2024/04/19 15:44:59;;;;;;;;;9.00;6.00;;;;;18.43;55.75;99913.22;146614;703;47012;-72
2024/04/19 15:48:06;;;;;;;;;10.75;8.75;;;;;18.38;58.24;99920.22;146619;590;46018;-74
2024/04/19 15:51:09;;;;;;;;;6.75;6.25;;;;;18.29;60.02;99922.78;146615;570;46012;-76
2024/04/19 15:54:15;;;;;;;;;5.25;5.25;;;;;18.15;60.95;99946.28;146619;596;47010;-76
2024/04/19 15:57:15;;;;;;;;;4.00;4.00;;;;;18.02;61.92;99954.03;146614;665;47012;-77
2024/04/19 16:00:18;;;;;;;;;6.25;6.25;;;;;17.87;61.23;99954.78;146620;633;47018;-73
2024/04/19 16:03:22;;;;;;;;;6.00;4.75;;;;;17.76;60.94;99954.66;146615;682;46018;-74
2024/04/19 16:06:48;;;;;;;;;5.00;5.00;;;;;17.29;56.83;99894.75;146619;611;46018;-73
2024/04/19 16:10:17;;;;;;;;;5.50;4.25;;;;;17.21;55.81;99878.06;146615;604;46018;-73
2024/04/19 16:13:22;;;;;;;;;10.75;9.25;;;;;17.40;58.96;99926.31;146612;605;46019;-73
2024/04/19 16:16:24;;;;;;;;;18.00;17.75;;;;;17.21;61.99;99910.37;146611;563;46018;-74
2024/04/19 16:19:26;;;;;;;;;13.75;12.00;;;;;17.08;61.02;99905.88;146612;683;46018;-74
2024/04/19 16:22:33;;;;;;;;;8.00;8.00;;;;;17.00;59.43;99904.88;146632;598;46012;-73